createdAt,value
2023-05-06T00:01:25.446Z,98093.41
2023-05-06T00:03:53.578Z,98085.86
2023-05-06T00:06:22.564Z,98086.96
2023-05-06T00:08:50.747Z,98087.80
2023-05-06T00:11:18.677Z,98086.14
2023-05-06T00:13:46.552Z,98079.81
2023-05-06T00:16:14.513Z,98076.40
2023-05-06T00:18:42.805Z,98078.14
2023-05-06T00:21:11.402Z,98080.57
2023-05-06T00:23:39.294Z,98076.64
2023-05-06T00:26:07.225Z,98068.96
2023-05-06T00:28:35.257Z,98064.57
2023-05-06T00:31:03.222Z,98061.94
2023-05-06T00:33:31.210Z,98056.41
2023-05-06T00:35:59.135Z,98055.02
2023-05-06T00:38:27.162Z,98054.21
2023-05-06T00:40:55.853Z,98055.42
2023-05-06T00:43:23.763Z,98053.88
2023-05-06T00:45:51.789Z,98052.70
2023-05-06T00:48:19.925Z,98053.29
2023-05-06T00:50:47.883Z,98047.14
2023-05-06T00:53:19.905Z,98049.00
2023-05-06T00:55:50.402Z,98046.58
2023-05-06T00:58:20.527Z,98043.14
2023-05-06T01:00:49.640Z,98044.55
2023-05-06T01:03:17.778Z,98048.30
2023-05-06T01:06:09.251Z,98048.48
2023-05-06T01:09:14.579Z,98049.19
2023-05-06T01:12:12.437Z,98045.70
2023-05-06T01:15:09.793Z,98047.31
2023-05-06T01:17:43.010Z,98047.57
2023-05-06T01:20:12.816Z,98048.20
2023-05-06T01:22:41.349Z,98050.60
2023-05-06T01:25:21.451Z,98056.56
2023-05-06T01:27:50.732Z,98056.55
2023-05-06T01:30:20.510Z,98057.06
2023-05-06T01:33:15.036Z,98060.08
2023-05-06T01:36:20.950Z,98061.03
2023-05-06T01:39:16.781Z,98056.92
2023-05-06T01:41:48.879Z,98054.95
2023-05-06T01:44:17.562Z,98049.40
2023-05-06T01:46:46.291Z,98046.42
2023-05-06T01:49:17.130Z,98043.12
2023-05-06T01:51:49.970Z,98044.08
2023-05-06T01:54:18.625Z,98042.26
2023-05-06T01:56:46.832Z,98042.80
2023-05-06T01:59:16.128Z,98045.67
2023-05-06T02:01:44.098Z,98047.04
2023-05-06T02:04:12.023Z,98044.92
2023-05-06T02:06:40.596Z,98040.86
2023-05-06T02:09:08.551Z,98036.15
2023-05-06T02:11:41.988Z,98035.42
2023-05-06T02:14:09.951Z,98030.68
2023-05-06T02:16:37.956Z,98034.97
2023-05-06T02:19:06.644Z,98031.75
2023-05-06T02:21:34.619Z,98029.05
2023-05-06T02:24:02.603Z,98021.27
2023-05-06T02:26:30.488Z,98016.16
2023-05-06T02:28:58.403Z,98016.86
2023-05-06T02:31:26.286Z,98006.92
2023-05-06T02:33:54.225Z,98005.17
2023-05-06T02:36:22.074Z,97997.82
2023-05-06T02:38:50.127Z,98002.89
2023-05-06T02:41:18.128Z,98003.92
2023-05-06T02:43:46.626Z,98008.86
2023-05-06T02:46:14.538Z,98008.22
2023-05-06T02:48:42.454Z,98006.59
2023-05-06T02:51:10.814Z,98007.95
2023-05-06T02:53:38.798Z,98007.17
2023-05-06T02:56:06.866Z,98006.02
2023-05-06T02:58:34.769Z,98012.55
2023-05-06T03:01:02.746Z,98012.16
2023-05-06T03:03:30.802Z,98018.42
2023-05-06T03:05:59.037Z,98015.09
2023-05-06T03:08:26.977Z,98011.58
2023-05-06T03:10:55.390Z,98011.34
2023-05-06T03:13:23.529Z,98009.53
2023-05-06T03:15:54.184Z,98006.20
2023-05-06T03:18:22.986Z,98004.29
2023-05-06T03:20:51.151Z,98003.42
2023-05-06T03:23:19.525Z,98003.88
2023-05-06T03:25:47.470Z,97998.52
2023-05-06T03:28:15.731Z,98002.38
2023-05-06T03:30:44.431Z,97999.87
2023-05-06T03:33:12.343Z,97999.17
2023-05-06T03:35:40.635Z,98008.42
2023-05-06T03:38:08.565Z,98006.39
2023-05-06T03:40:42.230Z,98000.58
2023-05-06T03:43:10.467Z,98006.18
2023-05-06T03:45:38.781Z,98006.55
2023-05-06T03:48:06.780Z,98014.29
2023-05-06T03:50:35.866Z,98008.95
2023-05-06T03:53:03.899Z,98011.41
2023-05-06T03:55:32.613Z,98008.67
2023-05-06T03:58:01.834Z,98009.70
2023-05-06T04:00:29.706Z,98007.69
2023-05-06T04:02:57.653Z,98011.40
2023-05-06T04:05:31.372Z,98009.87
2023-05-06T04:07:59.902Z,98009.46
2023-05-06T04:10:28.036Z,98011.11
2023-05-06T04:12:59.909Z,98007.33
2023-05-06T04:15:34.535Z,98009.19
2023-05-06T04:18:03.034Z,98012.38
2023-05-06T04:20:31.102Z,98014.18
2023-05-06T04:22:59.107Z,98019.54
2023-05-06T04:25:28.039Z,98017.19
2023-05-06T04:27:56.311Z,98018.23
2023-05-06T04:30:24.863Z,98017.40
2023-05-06T04:32:53.088Z,98012.69
2023-05-06T04:35:21.859Z,98014.52
2023-05-06T04:37:50.792Z,98009.35
2023-05-06T04:40:23.729Z,98005.15
2023-05-06T04:42:53.326Z,98003.56
2023-05-06T04:45:24.511Z,98003.95
2023-05-06T04:47:53.513Z,97995.61
2023-05-06T04:50:21.452Z,97998.91
2023-05-06T04:52:49.526Z,98001.96
2023-05-06T04:55:18.930Z,98009.27
2023-05-06T04:57:49.956Z,98010.46
2023-05-06T05:00:18.213Z,98008.39
2023-05-06T05:02:47.110Z,98007.86
2023-05-06T05:05:16.218Z,98000.14
2023-05-06T05:07:45.098Z,97991.67
2023-05-06T05:10:13.329Z,97987.84
2023-05-06T05:12:41.339Z,97983.08
2023-05-06T05:15:10.146Z,97979.67
2023-05-06T05:17:39.105Z,97978.34
2023-05-06T05:20:08.322Z,97979.83
2023-05-06T05:22:37.342Z,97985.95
2023-05-06T05:25:08.308Z,97992.80
2023-05-06T05:27:37.496Z,97990.66
2023-05-06T05:30:06.504Z,98001.71
2023-05-06T05:32:35.873Z,98013.60
2023-05-06T05:35:05.187Z,98009.99
2023-05-06T05:37:33.122Z,98003.98
2023-05-06T05:40:01.592Z,98001.45
2023-05-06T05:42:33.779Z,97999.69
2023-05-06T05:45:04.524Z,97996.21
2023-05-06T05:47:32.957Z,97996.45
2023-05-06T05:50:01.346Z,97995.38
2023-05-06T05:52:31.677Z,97992.99
2023-05-06T05:55:00.155Z,97995.67
2023-05-06T05:57:28.133Z,97995.17
2023-05-06T05:59:56.006Z,97994.14
2023-05-06T06:02:24.057Z,97992.44
2023-05-06T06:04:52.450Z,97989.92
2023-05-06T06:07:20.658Z,97985.88
2023-05-06T06:09:49.081Z,97978.84
2023-05-06T06:12:18.283Z,97980.23
2023-05-06T06:14:48.315Z,97980.14
2023-05-06T06:17:18.748Z,97977.13
2023-05-06T06:19:51.304Z,97973.96
2023-05-06T06:22:19.287Z,97970.48
2023-05-06T06:24:47.492Z,97969.27
2023-05-06T06:27:15.607Z,97969.23
2023-05-06T06:29:43.594Z,97970.04
2023-05-06T06:32:11.602Z,97975.39
2023-05-06T06:34:41.327Z,97977.63
2023-05-06T06:37:10.743Z,97973.58
2023-05-06T06:39:38.653Z,97972.40
2023-05-06T06:42:09.452Z,97972.58
2023-05-06T06:44:40.910Z,97969.07
2023-05-06T06:47:08.800Z,97969.73
2023-05-06T06:49:36.755Z,97969.05
2023-05-06T06:52:05.004Z,97966.77
2023-05-06T06:54:33.103Z,97965.54
2023-05-06T06:57:01.673Z,97965.98
2023-05-06T06:59:29.950Z,97955.45
2023-05-06T07:01:57.838Z,97946.29
2023-05-06T07:04:25.903Z,97941.60
2023-05-06T07:06:53.945Z,97940.88
2023-05-06T07:09:21.894Z,97937.20
2023-05-06T07:11:49.890Z,97935.16
2023-05-06T07:14:17.751Z,97937.07
2023-05-06T07:16:46.692Z,97934.42
2023-05-06T07:19:15.692Z,97932.60
2023-05-06T07:21:43.583Z,97929.71
2023-05-06T07:24:11.626Z,97928.88
2023-05-06T07:26:39.970Z,97925.59
2023-05-06T07:29:07.880Z,97922.67
2023-05-06T07:31:35.886Z,97918.23
2023-05-06T07:34:03.827Z,97920.75
2023-05-06T07:36:40.185Z,97919.09
2023-05-06T07:39:08.413Z,97916.83
2023-05-06T07:41:36.745Z,97917.83
2023-05-06T07:44:05.077Z,97915.30
2023-05-06T07:46:33.767Z,97912.86
2023-05-06T07:49:01.715Z,97913.87
2023-05-06T07:51:29.932Z,97912.95
2023-05-06T07:53:57.901Z,97904.73
2023-05-06T07:56:25.878Z,97903.86
2023-05-06T07:58:54.187Z,97901.88
2023-05-06T08:01:22.162Z,97901.33
2023-05-06T08:03:50.200Z,97900.95
2023-05-06T08:06:18.295Z,97896.48
2023-05-06T08:08:47.183Z,97900.17
2023-05-06T08:11:17.053Z,97897.91
2023-05-06T08:13:47.325Z,97893.36
2023-05-06T08:16:15.591Z,97894.52
2023-05-06T08:18:43.655Z,97900.14
2023-05-06T08:21:11.581Z,97897.14
2023-05-06T08:23:39.582Z,97900.55
2023-05-06T08:26:07.523Z,97899.87
2023-05-06T08:28:35.448Z,97900.80
2023-05-06T08:31:03.354Z,97900.64
2023-05-06T08:33:31.297Z,97898.77
2023-05-06T08:35:59.248Z,97903.15
2023-05-06T08:38:27.579Z,97899.81
2023-05-06T08:41:00.711Z,97903.59
2023-05-06T08:43:32.081Z,97899.02
2023-05-06T08:46:00.043Z,97898.36
2023-05-06T08:48:28.675Z,97892.70
2023-05-06T08:51:00.394Z,97884.48
2023-05-06T08:53:29.561Z,97881.79
2023-05-06T08:56:08.877Z,97884.90
2023-05-06T08:58:40.075Z,97879.52
2023-05-06T09:01:08.687Z,97880.83
2023-05-06T09:03:36.881Z,97883.54
2023-05-06T09:06:04.983Z,97880.25
2023-05-06T09:08:32.854Z,97877.45
2023-05-06T09:11:00.817Z,97876.46
2023-05-06T09:13:28.926Z,97873.84
2023-05-06T09:15:56.923Z,97866.34
2023-05-06T09:18:24.829Z,97862.00
2023-05-06T09:20:52.703Z,97861.31
2023-05-06T09:23:22.421Z,97852.33
2023-05-06T09:25:51.285Z,97841.79
2023-05-06T09:28:19.261Z,97838.00
2023-05-06T09:30:48.001Z,97833.82
2023-05-06T09:33:16.232Z,97828.14
2023-05-06T09:35:44.437Z,97831.31
2023-05-06T09:38:12.322Z,97820.55
2023-05-06T09:40:40.282Z,97813.48
2023-05-06T09:43:10.148Z,97810.13
2023-05-06T09:45:38.910Z,97806.21
2023-05-06T09:48:10.101Z,97809.33
2023-05-06T09:50:38.231Z,97812.69
2023-05-06T09:53:07.316Z,97824.28
2023-05-06T09:55:36.322Z,97825.91
2023-05-06T09:58:06.542Z,97826.44
2023-05-06T10:00:36.343Z,97831.13
2023-05-06T10:03:05.190Z,97835.98
2023-05-06T10:05:34.628Z,97828.33
2023-05-06T10:08:07.317Z,97834.73
2023-05-06T10:10:37.441Z,97840.55
2023-05-06T10:13:05.546Z,97846.64
2023-05-06T10:15:33.495Z,97850.91
2023-05-06T10:18:01.979Z,97854.92
2023-05-06T10:20:31.567Z,97855.60
2023-05-06T10:23:20.933Z,97848.24
2023-05-06T10:25:52.988Z,97846.60
2023-05-06T10:28:30.811Z,97852.73
2023-05-06T10:31:00.161Z,97860.58
2023-05-06T10:33:29.185Z,97872.98
2023-05-06T10:36:03.050Z,97892.20
2023-05-06T10:38:37.700Z,97896.12
2023-05-06T10:41:08.457Z,97901.92
2023-05-06T10:43:44.047Z,97898.45
2023-05-06T10:46:18.466Z,97908.31
2023-05-06T10:49:04.830Z,97900.80
2023-05-06T10:51:33.723Z,97898.63
2023-05-06T10:54:30.933Z,97896.64
2023-05-06T10:56:59.026Z,97889.40
2023-05-06T10:59:30.199Z,97880.35
2023-05-06T11:02:04.730Z,97883.80
2023-05-06T11:04:32.899Z,97875.13
2023-05-06T11:07:09.058Z,97866.44
2023-05-06T11:10:00.247Z,97860.53
2023-05-06T11:12:50.087Z,97859.52
2023-05-06T11:15:26.855Z,97852.62
2023-05-06T11:17:56.321Z,97844.89
2023-05-06T11:20:26.426Z,97835.52
2023-05-06T11:22:54.670Z,97820.81
2023-05-06T11:25:43.203Z,97824.40
2023-05-06T11:28:12.708Z,97835.41
2023-05-06T11:30:43.073Z,97839.11
2023-05-06T11:33:19.455Z,97842.12
2023-05-06T11:35:48.230Z,97841.41
2023-05-06T11:38:16.332Z,97841.44
2023-05-06T11:40:44.253Z,97837.64
2023-05-06T11:43:13.035Z,97829.27
2023-05-06T11:45:41.705Z,97826.48
2023-05-06T11:48:17.453Z,97825.08
2023-05-06T11:50:47.525Z,97820.51
2023-05-06T11:53:21.236Z,97819.70
2023-05-06T11:55:52.028Z,97813.74
2023-05-06T11:58:26.629Z,97821.50
2023-05-06T12:01:00.609Z,97824.94
2023-05-06T12:03:31.679Z,97825.91
2023-05-06T12:06:00.637Z,97829.14
2023-05-06T12:08:34.263Z,97824.77
2023-05-06T12:11:06.468Z,97828.30
2023-05-06T12:13:40.332Z,97809.30
2023-05-06T12:16:08.591Z,97803.73
2023-05-06T12:18:36.691Z,97813.72
2023-05-06T12:21:04.619Z,97819.54
2023-05-06T12:23:32.589Z,97812.95
2023-05-06T12:26:06.340Z,97810.02
2023-05-06T12:28:36.401Z,97809.50
2023-05-06T12:31:21.280Z,97805.17
2023-05-06T12:33:50.647Z,97805.17
2023-05-06T12:36:19.672Z,97802.91
2023-05-06T12:39:04.187Z,97809.95
2023-05-06T12:41:43.247Z,97804.64
2023-05-06T12:44:33.559Z,97807.23
2023-05-06T12:47:07.839Z,97802.23
2023-05-06T12:49:59.399Z,97792.15
2023-05-06T12:52:30.077Z,97801.78
2023-05-06T12:55:01.884Z,97799.08
2023-05-06T12:57:30.292Z,97792.34
2023-05-06T12:59:59.395Z,97785.46
2023-05-06T13:02:27.914Z,97797.41
2023-05-06T13:04:56.985Z,97807.77
2023-05-06T13:07:24.907Z,97814.61
2023-05-06T13:09:52.870Z,97826.60
2023-05-06T13:12:20.888Z,97818.14
2023-05-06T13:14:48.830Z,97830.03
2023-05-06T13:17:16.965Z,97847.09
2023-05-06T13:19:45.427Z,97855.83
2023-05-06T13:22:13.474Z,97862.22
2023-05-06T13:24:41.660Z,97859.27
2023-05-06T13:27:11.877Z,97853.52
2023-05-06T13:29:40.005Z,97846.55
2023-05-06T13:32:08.949Z,97839.13
2023-05-06T13:34:37.276Z,97844.89
2023-05-06T13:37:05.518Z,97840.17
2023-05-06T13:39:33.733Z,97841.19
2023-05-06T13:42:03.439Z,97839.94
2023-05-06T13:44:32.386Z,97835.41
2023-05-06T13:47:00.660Z,97834.75
2023-05-06T13:49:28.611Z,97830.14
2023-05-06T13:51:57.502Z,97833.56
2023-05-06T13:54:25.389Z,97831.11
2023-05-06T13:56:53.261Z,97829.27
2023-05-06T13:59:21.228Z,97826.09
2023-05-06T14:01:53.783Z,97823.05
2023-05-06T14:04:22.063Z,97823.94
2023-05-06T14:06:50.050Z,97818.08
2023-05-06T14:09:19.133Z,97816.25
2023-05-06T14:11:47.145Z,97814.96
2023-05-06T14:14:15.923Z,97820.48
2023-05-06T14:16:44.124Z,97820.67
2023-05-06T14:19:12.247Z,97817.48
2023-05-06T14:21:40.354Z,97815.46
2023-05-06T14:24:10.360Z,97812.76
2023-05-06T14:26:40.516Z,97811.61
2023-05-06T14:29:09.037Z,97806.20
2023-05-06T14:31:37.163Z,97806.80
2023-05-06T14:34:05.456Z,97810.86
2023-05-06T14:36:33.437Z,97808.08
2023-05-06T14:39:01.451Z,97804.17
2023-05-06T14:41:32.532Z,97805.78
2023-05-06T14:44:00.468Z,97803.69
2023-05-06T14:46:29.503Z,97803.20
2023-05-06T14:48:57.807Z,97804.98
2023-05-06T14:51:26.148Z,97806.67
2023-05-06T14:53:54.128Z,97811.41
2023-05-06T14:56:22.151Z,97815.84
2023-05-06T14:58:50.381Z,97819.13
2023-05-06T15:01:18.471Z,97819.44
2023-05-06T15:03:46.421Z,97815.56
2023-05-06T15:06:14.494Z,97818.36
2023-05-06T15:08:42.497Z,97819.10
2023-05-06T15:11:12.724Z,97823.86
2023-05-06T15:13:40.955Z,97821.65
2023-05-06T15:16:11.221Z,97820.90
2023-05-06T15:18:42.991Z,97820.98
2023-05-06T15:21:13.366Z,97822.58
2023-05-06T15:23:41.686Z,97820.95
2023-05-06T15:26:10.387Z,97826.63
2023-05-06T15:28:38.414Z,97822.32
2023-05-06T15:31:06.387Z,97819.20
2023-05-06T15:33:34.430Z,97818.13
2023-05-06T15:36:02.952Z,97817.89
2023-05-06T15:38:53.887Z,97815.80
2023-05-06T15:41:28.751Z,97821.98
2023-05-06T15:43:58.242Z,97825.91
2023-05-06T15:46:28.386Z,97823.03
2023-05-06T15:49:15.775Z,97821.07
2023-05-06T15:51:44.867Z,97827.03
2023-05-06T15:54:13.268Z,97823.75
2023-05-06T15:56:41.745Z,97824.38
2023-05-06T15:59:10.450Z,97818.56
2023-05-06T16:04:11.398Z,97827.33
2023-05-06T16:06:39.642Z,97824.00
2023-05-06T16:09:08.966Z,97823.27
2023-05-06T16:11:36.847Z,97826.49
2023-05-06T16:14:05.065Z,97821.91
2023-05-06T16:16:33.370Z,97821.58
2023-05-06T16:19:01.725Z,97825.87
2023-05-06T16:21:29.704Z,97821.70
2023-05-06T16:23:57.667Z,97825.63
2023-05-06T16:26:25.751Z,97827.71
2023-05-06T16:28:53.838Z,97825.52
2023-05-06T16:31:21.907Z,97824.59
2023-05-06T16:33:50.995Z,97827.94
2023-05-06T16:36:19.007Z,97833.89
2023-05-06T16:38:47.010Z,97834.36
2023-05-06T16:41:15.061Z,97835.80
2023-05-06T16:43:43.108Z,97834.71
2023-05-06T16:46:11.220Z,97836.98
2023-05-06T16:48:39.392Z,97834.44
2023-05-06T16:51:07.476Z,97836.16
2023-05-06T16:53:36.085Z,97841.34
2023-05-06T16:56:04.238Z,97846.37
2023-05-06T16:58:32.408Z,97842.00
2023-05-06T17:01:00.730Z,97837.33
2023-05-06T17:03:28.887Z,97833.89
2023-05-06T17:05:56.889Z,97828.45
2023-05-06T17:08:26.903Z,97829.37
2023-05-06T17:10:55.164Z,97829.11
2023-05-06T17:13:23.425Z,97829.70
2023-05-06T17:15:51.505Z,97833.05
2023-05-06T17:18:19.493Z,97829.73
2023-05-06T17:20:55.127Z,97838.31
2023-05-06T17:23:25.274Z,97842.77
2023-05-06T17:25:55.831Z,97839.27
2023-05-06T17:28:24.021Z,97842.91
2023-05-06T17:30:52.273Z,97843.36
2023-05-06T17:33:21.705Z,97842.57
2023-05-06T17:35:49.692Z,97846.45
2023-05-06T17:38:17.585Z,97848.77
2023-05-06T17:40:45.490Z,97844.77
2023-05-06T17:43:13.497Z,97848.70
2023-05-06T17:45:41.914Z,97852.04
2023-05-06T17:48:09.872Z,97850.99
2023-05-06T17:50:37.863Z,97853.40
2023-05-06T17:53:05.783Z,97852.98
2023-05-06T17:55:33.711Z,97854.05
2023-05-06T17:58:01.832Z,97854.66
2023-05-06T18:00:29.931Z,97853.31
2023-05-06T18:02:59.490Z,97853.23
2023-05-06T18:05:27.936Z,97849.20
2023-05-06T18:07:55.918Z,97852.15
2023-05-06T18:10:24.152Z,97852.89
2023-05-06T18:12:52.219Z,97852.81
2023-05-06T18:15:20.298Z,97855.00
2023-05-06T18:17:48.296Z,97857.74
2023-05-06T18:20:16.275Z,97857.47
2023-05-06T18:22:44.300Z,97861.98
2023-05-06T18:25:13.207Z,97867.14
2023-05-06T18:27:41.453Z,97868.30
2023-05-06T18:30:09.721Z,97874.27
2023-05-06T18:32:37.695Z,97872.20
2023-05-06T18:35:06.139Z,97874.91
2023-05-06T18:37:34.502Z,97875.70
2023-05-06T18:40:06.314Z,97878.38
2023-05-06T18:42:36.897Z,97877.28
2023-05-06T18:45:07.133Z,97878.75
2023-05-06T18:47:37.071Z,97882.09
2023-05-06T18:50:07.324Z,97883.22
2023-05-06T18:52:38.449Z,97883.78
2023-05-06T18:55:07.656Z,97886.98
2023-05-06T18:57:36.302Z,97891.76
2023-05-06T19:00:07.385Z,97891.89
2023-05-06T19:02:35.504Z,97892.86
2023-05-06T19:05:04.281Z,97898.17
2023-05-06T19:07:32.195Z,97899.59
2023-05-06T19:10:00.173Z,97906.27
2023-05-06T19:12:28.099Z,97910.36
2023-05-06T19:14:56.640Z,97914.84
2023-05-06T19:17:24.712Z,97913.94
2023-05-06T19:19:52.710Z,97921.14
2023-05-06T19:22:20.725Z,97921.46
2023-05-06T19:24:48.748Z,97928.55
2023-05-06T19:27:16.677Z,97928.31
2023-05-06T19:29:44.553Z,97931.39
2023-05-06T19:32:12.589Z,97930.16
2023-05-06T19:34:40.783Z,97930.81
2023-05-06T19:37:09.300Z,97929.59
2023-05-06T19:39:37.249Z,97925.70
2023-05-06T19:42:05.495Z,97926.02
2023-05-06T19:44:33.454Z,97929.39
2023-05-06T19:47:01.338Z,97929.98
2023-05-06T19:49:30.738Z,97930.39
2023-05-06T19:51:59.298Z,97925.26
2023-05-06T19:54:27.374Z,97928.44
2023-05-06T19:56:56.679Z,97930.81
2023-05-06T19:59:25.180Z,97936.66
2023-05-06T20:01:54.660Z,97934.23
2023-05-06T20:04:22.665Z,97935.31
2023-05-06T20:06:50.728Z,97932.09
2023-05-06T20:09:18.625Z,97930.77
2023-05-06T20:11:47.554Z,97932.72
2023-05-06T20:14:15.510Z,97932.61
2023-05-06T20:16:43.619Z,97938.55
2023-05-06T20:19:11.886Z,97940.30
2023-05-06T20:21:40.828Z,97940.31
2023-05-06T20:24:09.186Z,97945.94
2023-05-06T20:26:37.126Z,97943.75
2023-05-06T20:29:05.088Z,97943.21
2023-05-06T20:31:33.245Z,97943.41
2023-05-06T20:34:04.128Z,97942.13
2023-05-06T20:36:32.045Z,97943.64
2023-05-06T20:39:01.080Z,97948.64
2023-05-06T20:41:29.249Z,97946.01
2023-05-06T20:43:57.536Z,97949.58
2023-05-06T20:46:25.554Z,97947.54
2023-05-06T20:48:53.713Z,97947.89
2023-05-06T20:51:21.934Z,97951.08
2023-05-06T20:53:49.931Z,97956.02
2023-05-06T20:56:24.942Z,97955.06
2023-05-06T20:58:54.203Z,97950.34
2023-05-06T21:01:23.837Z,97953.23
2023-05-06T21:03:51.972Z,97953.08
2023-05-06T21:06:20.091Z,97957.86
2023-05-06T21:08:48.028Z,97965.79
2023-05-06T21:11:16.054Z,97965.23
2023-05-06T21:13:44.005Z,97969.02
2023-05-06T21:16:11.979Z,97970.05
2023-05-06T21:18:40.000Z,97968.65
2023-05-06T21:21:08.557Z,97965.21
2023-05-06T21:23:36.578Z,97965.42
2023-05-06T21:26:04.671Z,97974.79
2023-05-06T21:28:32.525Z,97975.16
2023-05-06T21:31:00.499Z,97973.15
2023-05-06T21:33:28.411Z,97975.44
2023-05-06T21:35:56.360Z,97976.94
2023-05-06T21:38:24.348Z,97974.73
2023-05-06T21:40:52.363Z,97974.88
2023-05-06T21:43:20.443Z,97972.81
2023-05-06T21:45:48.476Z,97973.11
2023-05-06T21:48:16.801Z,97974.19
2023-05-06T21:50:46.073Z,97970.58
2023-05-06T21:53:14.057Z,97972.59
2023-05-06T21:55:44.124Z,97974.57
2023-05-06T21:58:12.131Z,97975.20
2023-05-06T22:00:40.096Z,97978.19
2023-05-06T22:03:08.314Z,97980.23
2023-05-06T22:05:36.400Z,97976.89
2023-05-06T22:08:04.533Z,97978.71
2023-05-06T22:10:34.734Z,97976.71
2023-05-06T22:13:04.146Z,97982.21
2023-05-06T22:15:32.117Z,97981.65
2023-05-06T22:18:00.754Z,97983.85
2023-05-06T22:20:29.282Z,97983.23
2023-05-06T22:22:57.901Z,97982.67
2023-05-06T22:25:29.220Z,97981.31
2023-05-06T22:27:59.848Z,97977.11
2023-05-06T22:30:28.540Z,97979.40
2023-05-06T22:32:58.984Z,97980.15
2023-05-06T22:35:26.948Z,97980.18
2023-05-06T22:37:55.015Z,97979.95
2023-05-06T22:40:23.194Z,97977.48
2023-05-06T22:42:52.801Z,97983.23
2023-05-06T22:45:20.987Z,97979.40
2023-05-06T22:47:49.186Z,97977.50
2023-05-06T22:50:17.288Z,97976.95
2023-05-06T22:52:45.224Z,97979.02
2023-05-06T22:55:13.609Z,97971.98
2023-05-06T22:57:41.770Z,97974.73
2023-05-06T23:00:12.720Z,97974.50
2023-05-06T23:02:41.280Z,97977.09
2023-05-06T23:05:10.014Z,97974.84
2023-05-06T23:07:42.296Z,97973.16
2023-05-06T23:10:11.136Z,97978.25
2023-05-06T23:12:39.259Z,97973.27
2023-05-06T23:15:08.028Z,97981.95
2023-05-06T23:17:35.965Z,97979.80
2023-05-06T23:20:04.503Z,97982.10
2023-05-06T23:22:32.470Z,97986.56
2023-05-06T23:25:00.383Z,97991.17
2023-05-06T23:27:28.285Z,97989.48
2023-05-06T23:29:56.208Z,97990.34
2023-05-06T23:32:24.200Z,97991.43
2023-05-06T23:34:52.735Z,97992.92
2023-05-06T23:37:21.212Z,97995.20
2023-05-06T23:39:49.182Z,97990.38
2023-05-06T23:42:17.125Z,97987.77
2023-05-06T23:44:45.841Z,97983.37
2023-05-06T23:47:13.777Z,97985.08
2023-05-06T23:49:41.761Z,97986.95
2023-05-06T23:52:09.692Z,97988.52
2023-05-06T23:54:37.638Z,97990.34
2023-05-06T23:57:05.524Z,97988.80
2023-05-06T23:59:33.441Z,97989.95
